createdAt,value
2022-10-26T00:01:45.349Z,11.20
2022-10-26T00:04:12.887Z,11.18
2022-10-26T00:06:40.583Z,11.11
2022-10-26T00:09:08.062Z,11.14
2022-10-26T00:11:35.469Z,11.18
2022-10-26T00:14:03.866Z,11.20
2022-10-26T00:16:31.595Z,11.21
2022-10-26T00:18:58.951Z,11.15
2022-10-26T00:21:26.311Z,11.14
2022-10-26T00:23:53.794Z,11.10
2022-10-26T00:26:21.398Z,11.09
2022-10-26T00:28:49.118Z,11.01
2022-10-26T00:31:17.817Z,10.97
2022-10-26T00:33:45.648Z,10.98
2022-10-26T00:36:16.983Z,10.99
2022-10-26T00:38:49.623Z,10.96
2022-10-26T00:41:19.246Z,10.93
2022-10-26T00:43:46.721Z,10.89
2022-10-26T00:46:35.207Z,10.76
2022-10-26T00:49:05.788Z,10.79
2022-10-26T00:51:40.158Z,10.82
2022-10-26T00:54:12.411Z,10.77
2022-10-26T00:56:40.851Z,10.75
2022-10-26T00:59:10.167Z,10.77
2022-10-26T01:01:40.677Z,10.79
2022-10-26T01:04:08.174Z,10.81
2022-10-26T01:06:38.227Z,10.80
2022-10-26T01:09:06.193Z,10.78
2022-10-26T01:11:33.552Z,10.79
2022-10-26T01:14:02.231Z,10.80
2022-10-26T01:16:51.897Z,10.76
2022-10-26T01:19:58.154Z,10.72
2022-10-26T01:22:30.359Z,10.69
2022-10-26T01:25:17.349Z,10.67
2022-10-26T01:27:47.746Z,10.65
2022-10-26T01:30:31.193Z,10.65
2022-10-26T01:33:16.038Z,10.60
2022-10-26T01:36:14.611Z,10.56
2022-10-26T01:39:07.186Z,10.59
2022-10-26T01:41:50.020Z,10.55
2022-10-26T01:44:33.927Z,10.51
2022-10-26T01:47:02.146Z,10.47
2022-10-26T01:49:33.691Z,10.48
2022-10-26T01:52:01.187Z,10.51
2022-10-26T01:54:29.555Z,10.49
2022-10-26T01:57:01.423Z,10.47
2022-10-26T01:59:56.264Z,10.49
2022-10-26T02:02:33.222Z,10.46
2022-10-26T02:05:26.388Z,10.40
2022-10-26T02:08:09.464Z,10.38
2022-10-26T02:11:30.703Z,10.38
2022-10-26T02:14:06.986Z,10.41
2022-10-26T02:16:52.804Z,10.38
2022-10-26T02:19:32.525Z,10.35
2022-10-26T02:22:13.328Z,10.36
2022-10-26T02:24:41.636Z,10.36
2022-10-26T02:27:12.957Z,10.36
2022-10-26T02:29:41.518Z,10.35
2022-10-26T02:32:09.484Z,10.34
2022-10-26T02:34:38.883Z,10.36
2022-10-26T02:37:07.202Z,10.33
2022-10-26T02:39:35.409Z,10.26
2022-10-26T02:42:05.166Z,10.20
2022-10-26T02:44:38.152Z,10.18
2022-10-26T02:47:05.645Z,10.13
2022-10-26T02:49:33.364Z,10.13
2022-10-26T02:52:08.891Z,10.16
2022-10-26T02:54:59.298Z,10.17
2022-10-26T02:57:32.601Z,10.19
2022-10-26T03:00:00.821Z,10.20
2022-10-26T03:02:30.345Z,10.23
2022-10-26T03:05:08.063Z,10.22
2022-10-26T03:07:35.542Z,10.22
2022-10-26T03:10:03.033Z,10.21
2022-10-26T03:12:30.535Z,10.17
2022-10-26T03:14:57.998Z,10.17
2022-10-26T03:17:25.713Z,10.14
2022-10-26T03:19:53.192Z,10.13
2022-10-26T03:22:20.790Z,10.14
2022-10-26T03:24:48.513Z,10.13
2022-10-26T03:27:16.009Z,10.12
2022-10-26T03:29:43.362Z,10.12
2022-10-26T03:32:10.843Z,10.11
2022-10-26T03:34:38.445Z,10.09
2022-10-26T03:37:06.308Z,10.08
2022-10-26T03:39:33.894Z,10.08
2022-10-26T03:42:01.252Z,9.98
2022-10-26T03:44:28.724Z,9.97
2022-10-26T03:46:56.083Z,9.99
2022-10-26T03:49:23.806Z,9.95
2022-10-26T03:51:51.292Z,9.88
2022-10-26T03:54:18.775Z,9.85
2022-10-26T03:56:46.155Z,9.87
2022-10-26T03:59:13.628Z,9.90
2022-10-26T04:01:41.184Z,9.91
2022-10-26T04:04:08.753Z,9.89
2022-10-26T04:06:37.429Z,9.88
2022-10-26T04:09:05.106Z,9.87
2022-10-26T04:11:32.588Z,9.82
2022-10-26T04:14:00.788Z,9.76
2022-10-26T04:16:31.119Z,9.73
2022-10-26T04:19:01.163Z,9.68
2022-10-26T04:21:28.641Z,9.62
2022-10-26T04:23:56.231Z,9.63
2022-10-26T04:26:23.724Z,9.61
2022-10-26T04:28:51.200Z,9.63
2022-10-26T04:31:18.682Z,9.62
2022-10-26T04:38:06.688Z,9.69
2022-10-26T04:40:34.881Z,9.74
2022-10-26T04:43:02.619Z,9.75
2022-10-26T04:45:31.256Z,9.75
2022-10-26T04:48:06.570Z,9.75
2022-10-26T04:50:34.289Z,9.75
2022-10-26T04:53:01.770Z,9.76
2022-10-26T04:55:29.254Z,9.77
2022-10-26T04:58:00.046Z,9.76
2022-10-26T05:00:30.463Z,9.75
2022-10-26T05:03:13.184Z,9.76
2022-10-26T05:05:40.794Z,9.73
2022-10-26T05:08:15.943Z,9.75
2022-10-26T05:10:43.563Z,9.73
2022-10-26T05:13:11.148Z,9.72
2022-10-26T05:15:38.526Z,9.71
2022-10-26T05:18:06.353Z,9.70
2022-10-26T05:20:38.512Z,9.69
2022-10-26T05:23:08.149Z,9.68
2022-10-26T05:25:36.234Z,9.67
2022-10-26T05:28:05.909Z,9.67
2022-10-26T05:30:33.485Z,9.68
2022-10-26T05:33:03.299Z,9.65
2022-10-26T05:35:31.680Z,9.64
2022-10-26T05:37:59.526Z,9.61
2022-10-26T05:40:27.009Z,9.56
2022-10-26T05:43:00.130Z,9.55
2022-10-26T05:45:27.979Z,9.54
2022-10-26T05:47:58.589Z,9.52
2022-10-26T05:50:29.299Z,9.49
2022-10-26T05:52:56.902Z,9.49
2022-10-26T05:55:24.856Z,9.44
2022-10-26T05:57:52.982Z,9.43
2022-10-26T06:00:23.231Z,9.43
2022-10-26T06:03:08.175Z,9.44
2022-10-26T06:05:46.935Z,9.44
2022-10-26T06:08:14.784Z,9.44
2022-10-26T06:10:42.386Z,9.44
2022-10-26T06:13:10.105Z,9.40
2022-10-26T06:15:50.111Z,9.39
2022-10-26T06:18:40.111Z,9.40
2022-10-26T06:21:23.074Z,9.40
2022-10-26T06:24:13.390Z,9.40
2022-10-26T06:26:59.555Z,9.39
2022-10-26T06:29:37.958Z,9.39
2022-10-26T06:32:05.358Z,9.38
2022-10-26T06:34:36.287Z,9.38
2022-10-26T06:37:04.370Z,9.37
2022-10-26T06:39:36.529Z,9.36
2022-10-26T06:42:04.242Z,9.34
2022-10-26T06:44:32.088Z,9.30
2022-10-26T06:47:21.214Z,9.28
2022-10-26T06:50:05.574Z,9.24
2022-10-26T06:52:43.253Z,9.27
2022-10-26T06:55:15.677Z,9.32
2022-10-26T06:57:44.250Z,9.32
2022-10-26T07:00:15.150Z,9.31
2022-10-26T07:02:43.020Z,9.29
2022-10-26T07:05:13.146Z,9.34
2022-10-26T07:07:43.146Z,9.42
2022-10-26T07:10:11.351Z,9.46
2022-10-26T07:12:39.079Z,9.47
2022-10-26T07:17:48.756Z,9.46
2022-10-26T07:20:18.103Z,9.51
2022-10-26T07:22:45.675Z,9.55
2022-10-26T07:25:13.259Z,9.58
2022-10-26T07:27:44.246Z,9.61
2022-10-26T07:30:12.203Z,9.63
2022-10-26T07:32:39.682Z,9.66
2022-10-26T07:35:07.411Z,9.70
2022-10-26T07:37:34.880Z,9.75
2022-10-26T07:40:05.744Z,9.79
2022-10-26T07:46:48.212Z,9.93
2022-10-26T07:49:19.149Z,9.97
2022-10-26T07:51:47.147Z,10.00
2022-10-26T07:54:14.632Z,10.05
2022-10-26T07:56:42.105Z,10.12
2022-10-26T07:59:12.459Z,10.17
2022-10-26T08:01:39.965Z,10.18
2022-10-26T08:04:07.424Z,10.20
2022-10-26T08:06:34.900Z,10.24
2022-10-26T08:09:05.925Z,10.29
2022-10-26T08:11:37.198Z,10.31
2022-10-26T08:14:05.281Z,10.39
2022-10-26T08:16:34.914Z,10.46
2022-10-26T08:19:02.388Z,10.55
2022-10-26T08:21:40.315Z,10.57
2022-10-26T08:24:08.389Z,10.61
2022-10-26T08:26:35.996Z,10.68
2022-10-26T08:29:04.097Z,10.70
2022-10-26T08:31:31.577Z,10.76
2022-10-26T08:33:59.758Z,10.82
2022-10-26T08:36:28.320Z,10.86
2022-10-26T08:38:55.864Z,10.91
2022-10-26T08:41:38.404Z,10.93
2022-10-26T08:44:16.324Z,10.99
2022-10-26T08:46:46.812Z,11.07
2022-10-26T08:49:26.935Z,11.08
2022-10-26T08:51:58.337Z,11.09
2022-10-26T08:54:34.694Z,11.16
2022-10-26T08:57:10.834Z,11.25
2022-10-26T08:59:46.501Z,11.29
2022-10-26T09:02:16.855Z,11.35
2022-10-26T09:04:44.794Z,11.45
2022-10-26T09:07:15.533Z,11.51
2022-10-26T09:10:06.384Z,11.60
2022-10-26T09:12:54.490Z,11.70
2022-10-26T09:15:28.295Z,11.77
2022-10-26T09:18:03.508Z,11.82
2022-10-26T09:20:40.516Z,11.87
2022-10-26T09:23:10.611Z,11.92
2022-10-26T09:25:40.038Z,11.99
2022-10-26T09:28:23.482Z,12.07
2022-10-26T09:31:05.452Z,12.13
2022-10-26T09:33:48.589Z,12.22
2022-10-26T09:36:21.304Z,12.31
2022-10-26T09:39:01.426Z,12.38
2022-10-26T09:41:40.880Z,12.48
2022-10-26T09:44:43.723Z,12.54
2022-10-26T09:47:20.093Z,12.68
2022-10-26T09:49:50.934Z,12.78
2022-10-26T09:52:18.415Z,12.90
2022-10-26T09:54:51.790Z,13.01
2022-10-26T09:57:23.580Z,13.09
2022-10-26T09:59:52.887Z,13.18
2022-10-26T10:02:41.254Z,13.28
2022-10-26T10:05:56.117Z,13.37
2022-10-26T10:08:29.270Z,13.50
2022-10-26T10:11:04.667Z,13.61
2022-10-26T10:13:41.854Z,13.72
2022-10-26T10:16:21.680Z,13.81
2022-10-26T10:18:58.620Z,13.87
2022-10-26T10:21:40.638Z,14.03
2022-10-26T10:24:34.275Z,14.15
2022-10-26T10:27:06.452Z,14.23
2022-10-26T10:29:42.850Z,14.36
2022-10-26T10:32:26.127Z,14.51
2022-10-26T10:34:58.293Z,14.64
2022-10-26T10:37:30.817Z,14.77
2022-10-26T10:40:08.198Z,14.94
2022-10-26T10:42:39.099Z,15.11
2022-10-26T10:45:32.249Z,15.29
2022-10-26T10:48:38.619Z,15.44
2022-10-26T10:51:12.789Z,15.57
2022-10-26T10:53:49.422Z,15.72
2022-10-26T10:56:41.615Z,16.00
2022-10-26T10:59:31.061Z,16.23
2022-10-26T11:02:23.553Z,16.37
2022-10-26T11:05:22.019Z,16.54
2022-10-26T11:07:57.345Z,16.71
2022-10-26T11:10:28.452Z,16.90
2022-10-26T11:13:02.512Z,17.07
2022-10-26T11:15:32.877Z,17.18
2022-10-26T11:18:20.169Z,17.49
2022-10-26T11:24:00.954Z,17.96
2022-10-26T11:26:33.951Z,18.17
2022-10-26T11:29:41.678Z,18.50
2022-10-26T11:32:22.088Z,18.76
2022-10-26T11:35:15.480Z,18.93
2022-10-26T11:37:54.966Z,19.12
2022-10-26T11:44:53.775Z,20.81
2022-10-26T11:47:34.939Z,21.33
2022-10-26T11:50:17.222Z,21.72
2022-10-26T11:53:04.810Z,22.08
2022-10-26T11:55:32.329Z,22.32
2022-10-26T11:58:00.265Z,22.49
2022-10-26T12:00:28.215Z,22.78
2022-10-26T12:03:07.224Z,22.83
2022-10-26T12:05:40.699Z,22.88
2022-10-26T12:08:23.301Z,23.09
2022-10-26T12:10:58.732Z,23.47
2022-10-26T12:13:35.905Z,23.72
2022-10-26T12:16:15.514Z,24.11
2022-10-26T12:18:55.969Z,24.66
2022-10-26T12:21:30.872Z,25.19
2022-10-26T12:23:59.312Z,25.66
2022-10-26T12:26:26.675Z,25.98
2022-10-26T12:29:03.396Z,26.31
2022-10-26T12:31:38.353Z,26.69
2022-10-26T12:34:24.165Z,27.11
2022-10-26T12:36:57.650Z,27.42
2022-10-26T12:39:35.211Z,27.39
2022-10-26T12:42:05.898Z,27.55
2022-10-26T12:44:41.250Z,27.89
2022-10-26T12:47:09.895Z,27.65
2022-10-26T12:49:59.927Z,27.80
2022-10-26T12:52:34.401Z,27.42
2022-10-26T12:55:36.651Z,27.10
2022-10-26T12:58:41.937Z,27.60
2022-10-26T13:01:22.888Z,27.59
2022-10-26T13:04:06.891Z,27.48
2022-10-26T13:07:06.775Z,27.21
2022-10-26T13:09:34.429Z,27.45
2022-10-26T13:12:05.592Z,27.86
2022-10-26T13:14:54.069Z,28.51
2022-10-26T13:17:30.360Z,29.12
2022-10-26T13:20:00.665Z,29.41
2022-10-26T13:27:05.596Z,28.72
2022-10-26T13:29:34.171Z,28.54
2022-10-26T13:32:01.881Z,28.16
2022-10-26T13:34:31.163Z,27.93
2022-10-26T13:37:23.956Z,27.69
2022-10-26T13:39:55.993Z,27.29
2022-10-26T13:42:28.570Z,26.90
2022-10-26T13:45:11.959Z,26.63
2022-10-26T13:47:50.503Z,26.05
2022-10-26T13:50:22.775Z,25.77
2022-10-26T13:53:01.456Z,25.31
2022-10-26T13:56:02.607Z,24.75
2022-10-26T13:58:46.165Z,24.42
2022-10-26T14:01:21.618Z,24.52
2022-10-26T14:03:49.899Z,24.35
2022-10-26T14:06:25.302Z,24.20
2022-10-26T14:08:53.268Z,24.06
2022-10-26T14:11:24.829Z,23.89
2022-10-26T14:13:52.905Z,23.82
2022-10-26T14:16:29.621Z,23.88
2022-10-26T14:18:57.111Z,23.85
2022-10-26T14:21:24.620Z,23.75
2022-10-26T14:24:03.712Z,23.72
2022-10-26T14:26:39.950Z,23.64
2022-10-26T14:29:22.332Z,23.59
2022-10-26T14:31:50.758Z,23.58
2022-10-26T14:34:19.438Z,23.52
2022-10-26T14:36:49.972Z,23.29
2022-10-26T14:39:37.796Z,22.89
2022-10-26T14:42:17.888Z,22.69
2022-10-26T14:44:45.360Z,22.47
2022-10-26T14:47:15.478Z,22.27
2022-10-26T14:49:45.490Z,22.16
2022-10-26T14:52:18.606Z,21.98
2022-10-26T14:54:57.966Z,21.70
2022-10-26T14:57:34.330Z,21.60
2022-10-26T15:00:04.698Z,21.44
2022-10-26T15:02:32.410Z,21.30
2022-10-26T15:05:03.020Z,21.15
2022-10-26T15:07:38.418Z,20.77
2022-10-26T15:10:06.321Z,20.59
2022-10-26T15:12:38.538Z,20.63
2022-10-26T15:15:15.072Z,20.55
2022-10-26T15:17:53.907Z,20.37
2022-10-26T15:20:23.313Z,20.39
2022-10-26T15:22:59.425Z,20.35
2022-10-26T15:25:32.062Z,20.26
2022-10-26T15:28:21.639Z,20.12
2022-10-26T15:31:18.700Z,19.97
2022-10-26T15:33:52.356Z,19.78
2022-10-26T15:36:27.395Z,19.73
2022-10-26T15:38:55.612Z,19.67
2022-10-26T15:41:26.948Z,19.60
2022-10-26T15:43:57.293Z,19.53
2022-10-26T15:46:35.596Z,19.45
2022-10-26T15:49:05.921Z,19.37
2022-10-26T15:51:34.001Z,19.29
2022-10-26T15:54:05.208Z,19.01
2022-10-26T15:56:32.803Z,18.95
2022-10-26T15:59:00.310Z,18.94
2022-10-26T16:01:29.445Z,18.92
2022-10-26T16:03:57.212Z,18.85
2022-10-26T16:06:31.621Z,18.74
2022-10-26T16:09:01.745Z,18.66
2022-10-26T16:11:29.576Z,18.61
2022-10-26T16:13:59.646Z,18.57
2022-10-26T16:16:36.428Z,18.48
2022-10-26T16:22:01.591Z,18.36
2022-10-26T16:24:30.318Z,18.29
2022-10-26T16:26:58.020Z,18.25
2022-10-26T16:29:25.765Z,18.20
2022-10-26T16:31:53.599Z,18.14
2022-10-26T16:34:21.202Z,18.10
2022-10-26T16:36:48.800Z,18.03
2022-10-26T16:39:16.518Z,17.93
2022-10-26T16:41:43.993Z,17.90
2022-10-26T16:44:15.413Z,17.87
2022-10-26T16:46:47.527Z,17.84
2022-10-26T16:49:15.171Z,17.77
2022-10-26T16:51:43.656Z,17.70
2022-10-26T16:54:11.124Z,17.67
2022-10-26T16:56:39.152Z,17.66
2022-10-26T16:59:09.086Z,17.61
2022-10-26T17:01:36.698Z,17.57
2022-10-26T17:04:04.529Z,17.52
2022-10-26T17:06:31.890Z,17.44
2022-10-26T17:08:59.743Z,17.41
2022-10-26T17:11:27.221Z,17.40
2022-10-26T17:13:55.055Z,17.35
2022-10-26T17:16:23.856Z,17.31
2022-10-26T17:18:53.014Z,17.30
2022-10-26T17:21:28.663Z,17.29
2022-10-26T17:23:56.164Z,17.29
2022-10-26T17:26:23.737Z,17.18
2022-10-26T17:28:52.669Z,16.99
2022-10-26T17:31:20.393Z,16.99
2022-10-26T17:33:53.518Z,17.00
2022-10-26T17:36:22.612Z,17.02
2022-10-26T17:38:51.366Z,17.01
2022-10-26T17:41:23.540Z,16.98
2022-10-26T17:43:51.474Z,16.92
2022-10-26T17:46:21.238Z,16.90
2022-10-26T17:48:49.002Z,16.87
2022-10-26T17:51:18.726Z,16.86
2022-10-26T17:53:50.534Z,16.85
2022-10-26T17:56:19.686Z,16.79
2022-10-26T17:58:52.233Z,16.65
2022-10-26T18:01:19.742Z,16.57
2022-10-26T18:03:47.538Z,16.57
2022-10-26T18:06:15.139Z,16.64
2022-10-26T18:08:42.618Z,16.64
2022-10-26T18:11:14.802Z,16.62
2022-10-26T18:13:45.036Z,16.49
2022-10-26T18:16:17.299Z,16.36
2022-10-26T18:18:52.109Z,16.31
2022-10-26T18:21:20.305Z,16.36
2022-10-26T18:23:53.017Z,16.42
2022-10-26T18:26:22.463Z,16.44
2022-10-26T18:28:53.318Z,16.45
2022-10-26T18:31:22.952Z,16.35
2022-10-26T18:34:04.480Z,16.36
2022-10-26T18:36:33.072Z,16.30
2022-10-26T18:39:00.760Z,16.17
2022-10-26T18:41:28.351Z,16.10
2022-10-26T18:43:59.044Z,16.09
2022-10-26T18:46:29.076Z,16.04
2022-10-26T18:48:57.997Z,16.07
2022-10-26T18:51:30.764Z,16.07
2022-10-26T18:53:59.086Z,16.11
2022-10-26T18:56:27.424Z,16.10
2022-10-26T18:58:59.691Z,16.13
2022-10-26T19:01:28.457Z,16.17
2022-10-26T19:03:58.133Z,16.17
2022-10-26T19:06:26.454Z,16.18
2022-10-26T19:08:54.546Z,16.17
2022-10-26T19:11:23.479Z,16.19
2022-10-26T19:13:52.981Z,16.19
2022-10-26T19:16:40.627Z,16.16
2022-10-26T19:19:10.743Z,16.11
2022-10-26T19:21:50.822Z,16.10
2022-10-26T19:24:22.982Z,16.06
2022-10-26T19:26:51.311Z,16.02
2022-10-26T19:29:19.269Z,15.97
2022-10-26T19:31:47.826Z,15.98
2022-10-26T19:34:18.912Z,15.96
2022-10-26T19:36:48.796Z,15.98
2022-10-26T19:39:17.359Z,15.98
2022-10-26T19:41:45.928Z,15.96
2022-10-26T19:44:14.810Z,15.93
2022-10-26T19:46:43.710Z,15.93
2022-10-26T19:49:13.039Z,15.94
2022-10-26T19:51:40.788Z,15.84
2022-10-26T19:54:08.869Z,15.81
2022-10-26T19:56:37.323Z,15.79
2022-10-26T19:59:05.727Z,15.80
2022-10-26T20:01:33.278Z,15.79
2022-10-26T20:04:02.946Z,15.78
2022-10-26T20:06:31.216Z,15.67
2022-10-26T20:08:59.908Z,15.62
2022-10-26T20:11:27.526Z,15.61
2022-10-26T20:13:56.592Z,15.61
2022-10-26T20:16:25.335Z,15.62
2022-10-26T20:18:56.240Z,15.60
2022-10-26T20:21:29.428Z,15.53
2022-10-26T20:23:57.012Z,15.44
2022-10-26T20:26:28.215Z,15.42
2022-10-26T20:28:56.379Z,15.40
2022-10-26T20:31:24.056Z,15.36
2022-10-26T20:33:52.926Z,15.27
2022-10-26T20:36:21.112Z,15.22
2022-10-26T20:38:49.314Z,15.13
2022-10-26T20:41:17.160Z,15.09
2022-10-26T20:43:44.883Z,15.12
2022-10-26T20:46:21.484Z,15.11
2022-10-26T20:48:49.319Z,15.00
2022-10-26T20:51:26.373Z,14.88
2022-10-26T20:54:28.808Z,14.82
2022-10-26T20:56:57.511Z,14.80
2022-10-26T20:59:28.401Z,14.82
2022-10-26T21:01:55.955Z,14.80
2022-10-26T21:04:23.676Z,14.83
2022-10-26T21:06:51.378Z,14.83
2022-10-26T21:09:20.258Z,14.87
2022-10-26T21:11:49.585Z,14.87
2022-10-26T21:14:16.932Z,14.81
2022-10-26T21:16:44.427Z,14.85
2022-10-26T21:19:11.912Z,14.76
2022-10-26T21:21:39.376Z,14.64
2022-10-26T21:24:07.699Z,14.56
2022-10-26T21:26:35.190Z,14.62
2022-10-26T21:29:03.394Z,14.61
2022-10-26T21:35:54.026Z,14.47
2022-10-26T21:38:21.758Z,14.43
2022-10-26T21:40:49.110Z,14.39
2022-10-26T21:43:17.436Z,14.35
2022-10-26T21:45:44.933Z,14.37
2022-10-26T21:48:12.530Z,14.37
2022-10-26T21:50:41.434Z,14.41
2022-10-26T21:53:08.915Z,14.36
2022-10-26T21:55:36.515Z,14.30
2022-10-26T21:58:04.014Z,14.25
2022-10-26T22:00:31.743Z,14.29
2022-10-26T22:02:59.204Z,14.22
2022-10-26T22:05:26.581Z,14.09
2022-10-26T22:07:54.072Z,14.03
2022-10-26T22:10:22.975Z,14.00
2022-10-26T22:12:50.575Z,13.95
2022-10-26T22:15:24.215Z,14.01
2022-10-26T22:17:51.413Z,14.06
2022-10-26T22:20:18.648Z,14.07
2022-10-26T22:22:45.705Z,14.02
2022-10-26T22:25:12.794Z,13.96
2022-10-26T22:27:39.876Z,13.91
2022-10-26T22:30:07.676Z,13.98
2022-10-26T22:32:34.730Z,13.96
2022-10-26T22:35:11.164Z,13.97
2022-10-26T22:37:49.007Z,13.91
2022-10-26T22:40:16.099Z,13.87
2022-10-26T22:42:43.182Z,13.82
2022-10-26T22:45:10.344Z,13.84
2022-10-26T22:47:37.403Z,13.81
2022-10-26T22:50:04.868Z,13.82
2022-10-26T22:52:31.973Z,13.79
2022-10-26T22:54:59.024Z,13.78
2022-10-26T22:57:26.103Z,13.77
2022-10-26T22:59:53.187Z,13.77
2022-10-26T23:02:20.291Z,13.76
2022-10-26T23:07:19.346Z,13.71
2022-10-26T23:09:46.374Z,13.72
2022-10-26T23:12:13.452Z,13.70
2022-10-26T23:14:40.540Z,13.69
2022-10-26T23:17:07.690Z,13.66
2022-10-26T23:19:34.765Z,13.62
2022-10-26T23:22:01.910Z,13.60
2022-10-26T23:24:28.950Z,13.56
2022-10-26T23:26:56.068Z,13.55
2022-10-26T23:29:23.094Z,13.62
2022-10-26T23:31:50.192Z,13.64
2022-10-26T23:34:17.273Z,13.60
2022-10-26T23:36:44.379Z,13.61
2022-10-26T23:39:11.402Z,13.63
2022-10-26T23:41:38.504Z,13.62
2022-10-26T23:44:05.589Z,13.62
2022-10-26T23:46:32.669Z,13.59
2022-10-26T23:48:59.753Z,13.48
2022-10-26T23:51:26.822Z,13.50
2022-10-26T23:53:54.155Z,13.50
2022-10-26T23:56:21.216Z,13.48
2022-10-26T23:58:51.271Z,13.47
